createdAt,value
2018-12-09T00:00:52.516Z,11.23
2018-12-09T00:02:58.542Z,9.23
2018-12-09T00:05:02.697Z,7.90
2018-12-09T00:07:07.703Z,6.47
2018-12-09T00:09:11.929Z,5.90
2018-12-09T00:11:16.094Z,8.47
2018-12-09T00:13:20.200Z,8.40
2018-12-09T00:15:24.357Z,8.77
2018-12-09T00:17:28.504Z,10.30
2018-12-09T00:19:32.515Z,8.77
2018-12-09T00:21:36.652Z,8.27
2018-12-09T00:23:40.769Z,10.00
2018-12-09T00:25:44.797Z,7.67
2018-12-09T00:27:48.913Z,7.70
2018-12-09T00:29:52.969Z,10.97
2018-12-09T00:31:57.079Z,12.00
2018-12-09T00:34:01.201Z,11.93
2018-12-09T00:36:05.310Z,8.30
2018-12-09T00:38:09.421Z,9.23
2018-12-09T00:40:13.586Z,8.27
2018-12-09T00:42:17.688Z,9.17
2018-12-09T00:44:21.745Z,9.87
2018-12-09T00:46:25.822Z,9.27
2018-12-09T00:48:30.916Z,11.70
2018-12-09T00:50:35.022Z,7.70
2018-12-09T00:52:39.496Z,8.53
2018-12-09T00:54:43.510Z,7.30
2018-12-09T00:56:47.603Z,7.00
2018-12-09T00:58:51.644Z,6.87
2018-12-09T01:00:55.881Z,5.47
2018-12-09T01:02:59.993Z,5.90
2018-12-09T01:05:04.282Z,7.37
2018-12-09T01:07:09.301Z,5.20
2018-12-09T01:09:13.415Z,7.73
2018-12-09T01:11:17.511Z,6.17
2018-12-09T01:13:21.629Z,10.17
2018-12-09T01:15:25.869Z,4.33
2018-12-09T01:17:30.011Z,5.23
2018-12-09T01:19:34.080Z,7.50
2018-12-09T01:21:38.157Z,10.37
2018-12-09T01:23:42.313Z,9.33
2018-12-09T01:25:46.444Z,7.43
2018-12-09T01:27:50.495Z,9.70
2018-12-09T01:29:55.128Z,12.80
2018-12-09T01:31:59.311Z,6.00
2018-12-09T01:34:03.424Z,6.90
2018-12-09T01:36:07.849Z,4.03
2018-12-09T01:38:11.931Z,2.57
2018-12-09T01:40:16.425Z,1.90
2018-12-09T01:42:20.581Z,3.03
2018-12-09T01:44:24.963Z,3.77
2018-12-09T01:46:29.280Z,3.17
2018-12-09T01:48:33.405Z,3.43
2018-12-09T01:50:37.957Z,1.20
2018-12-09T01:52:42.181Z,4.93
2018-12-09T01:54:46.235Z,2.07
2018-12-09T01:56:50.536Z,1.90
2018-12-09T01:58:54.817Z,3.03
2018-12-09T02:01:00.350Z,2.53
2018-12-09T02:03:04.894Z,2.20
2018-12-09T02:05:11.025Z,3.20
2018-12-09T02:07:17.084Z,1.87
2018-12-09T02:09:21.236Z,1.97
2018-12-09T02:11:25.359Z,3.13
2018-12-09T02:13:29.498Z,2.13
2018-12-09T02:15:40.453Z,3.83
2018-12-09T02:17:44.588Z,3.20
2018-12-09T02:19:49.377Z,3.93
2018-12-09T02:21:53.621Z,4.20
2018-12-09T02:23:57.995Z,3.50
2018-12-09T02:26:02.007Z,4.40
2018-12-09T02:28:06.281Z,4.00
2018-12-09T02:30:10.573Z,3.87
2018-12-09T02:32:14.671Z,6.40
2018-12-09T02:34:18.877Z,4.50
2018-12-09T02:36:23.372Z,4.63
2018-12-09T02:38:27.579Z,6.43
2018-12-09T02:40:31.661Z,6.70
2018-12-09T02:42:36.009Z,10.40
2018-12-09T02:44:40.119Z,13.17
2018-12-09T02:46:44.506Z,10.77
2018-12-09T02:48:48.991Z,11.37
2018-12-09T02:50:53.224Z,10.47
2018-12-09T02:52:57.265Z,10.40
2018-12-09T02:55:01.432Z,9.50
2018-12-09T02:57:05.603Z,10.13
2018-12-09T02:59:09.809Z,9.83
2018-12-09T03:01:17.124Z,12.37
2018-12-09T03:03:22.107Z,11.87
2018-12-09T03:05:26.246Z,12.00
2018-12-09T03:07:30.290Z,7.70
2018-12-09T03:09:34.686Z,9.93
2018-12-09T03:11:38.963Z,10.03
2018-12-09T03:13:43.071Z,7.23
2018-12-09T03:15:47.197Z,8.87
2018-12-09T03:17:51.312Z,12.70
2018-12-09T03:19:55.428Z,9.63
2018-12-09T03:21:59.415Z,6.83
2018-12-09T03:24:04.137Z,7.70
2018-12-09T03:26:08.229Z,7.60
2018-12-09T03:28:12.426Z,8.53
2018-12-09T03:30:16.683Z,9.13
2018-12-09T03:32:20.807Z,7.23
2018-12-09T03:34:24.957Z,9.20
2018-12-09T03:36:29.154Z,7.57
2018-12-09T03:38:33.365Z,7.90
2018-12-09T03:40:37.543Z,8.80
2018-12-09T03:42:41.601Z,8.23
2018-12-09T03:44:45.650Z,8.73
2018-12-09T03:46:49.669Z,6.63
2018-12-09T03:48:53.713Z,4.87
2018-12-09T03:51:00.710Z,5.13
2018-12-09T03:53:05.018Z,7.43
2018-12-09T03:55:09.231Z,5.13
2018-12-09T03:57:13.331Z,5.90
2018-12-09T03:59:17.448Z,7.17
2018-12-09T04:01:21.796Z,7.43
2018-12-09T04:03:25.960Z,7.40
2018-12-09T04:05:30.221Z,8.83
2018-12-09T04:07:34.377Z,10.57
2018-12-09T04:09:38.407Z,6.97
2018-12-09T04:11:42.539Z,9.30
2018-12-09T04:13:46.637Z,7.53
2018-12-09T04:15:57.203Z,6.63
2018-12-09T04:18:01.344Z,7.13
2018-12-09T04:20:06.463Z,3.80
2018-12-09T04:22:10.843Z,5.07
2018-12-09T04:24:14.953Z,4.20
2018-12-09T04:26:19.049Z,6.83
2018-12-09T04:28:23.082Z,3.87
2018-12-09T04:30:27.187Z,5.07
2018-12-09T04:32:31.325Z,6.60
2018-12-09T04:34:35.365Z,3.70
2018-12-09T04:36:39.475Z,2.40
2018-12-09T04:38:43.505Z,3.90
2018-12-09T04:40:47.617Z,3.93
2018-12-09T04:42:51.801Z,2.63
2018-12-09T04:44:55.857Z,3.27
2018-12-09T04:46:59.864Z,4.50
2018-12-09T04:49:04.297Z,4.07
2018-12-09T04:51:08.361Z,2.57
2018-12-09T04:53:12.549Z,2.17
2018-12-09T04:55:16.669Z,2.07
2018-12-09T04:57:20.871Z,3.80
2018-12-09T04:59:26.325Z,3.00
2018-12-09T05:01:30.449Z,1.63
2018-12-09T05:03:34.854Z,1.00
2018-12-09T05:05:38.844Z,3.27
2018-12-09T05:07:43.055Z,2.87
2018-12-09T05:09:47.101Z,1.60
2018-12-09T05:11:51.165Z,2.63
2018-12-09T05:13:55.208Z,1.40
2018-12-09T05:15:59.365Z,2.07
2018-12-09T05:18:03.577Z,1.83
2018-12-09T05:20:08.423Z,3.23
2018-12-09T05:22:12.576Z,2.23
2018-12-09T05:24:16.813Z,2.23
2018-12-09T05:26:20.937Z,1.97
2018-12-09T05:28:25.117Z,1.03
2018-12-09T05:30:36.268Z,1.97
2018-12-09T05:32:41.274Z,2.57
2018-12-09T05:34:45.317Z,2.37
2018-12-09T05:36:49.552Z,2.13
2018-12-09T05:38:53.660Z,1.97
2018-12-09T05:40:57.909Z,1.60
2018-12-09T05:43:01.988Z,2.97
2018-12-09T05:45:06.396Z,2.30
2018-12-09T05:47:10.482Z,2.27
2018-12-09T05:49:14.586Z,2.83
2018-12-09T05:51:18.776Z,2.67
2018-12-09T05:53:22.861Z,2.87
2018-12-09T05:55:26.862Z,3.03
2018-12-09T05:57:30.997Z,2.23
2018-12-09T05:59:35.409Z,3.17
2018-12-09T06:01:39.413Z,3.77
2018-12-09T06:03:43.478Z,3.27
2018-12-09T06:05:47.497Z,2.73
2018-12-09T06:07:51.609Z,2.37
2018-12-09T06:09:55.648Z,3.70
2018-12-09T06:11:59.763Z,1.53
2018-12-09T06:14:04.138Z,3.97
2018-12-09T06:16:08.301Z,2.77
2018-12-09T06:18:12.383Z,1.43
2018-12-09T06:20:17.384Z,2.83
2018-12-09T06:22:21.510Z,3.07
2018-12-09T06:24:25.578Z,3.67
2018-12-09T06:26:30.078Z,4.23
2018-12-09T06:28:34.214Z,4.50
2018-12-09T06:30:38.490Z,2.17
2018-12-09T06:32:42.593Z,2.60
2018-12-09T06:34:46.644Z,3.30
2018-12-09T06:36:50.753Z,5.17
2018-12-09T06:38:54.888Z,5.70
2018-12-09T06:40:58.993Z,2.77
2018-12-09T06:43:03.219Z,3.77
2018-12-09T06:45:07.578Z,2.77
2018-12-09T06:47:11.606Z,5.83
2018-12-09T06:49:15.670Z,4.07
2018-12-09T06:51:19.656Z,3.30
2018-12-09T06:53:24.070Z,4.47
2018-12-09T06:55:28.117Z,2.83
2018-12-09T06:57:32.219Z,4.30
2018-12-09T06:59:36.347Z,3.00
2018-12-09T07:01:41.072Z,3.37
2018-12-09T07:03:45.303Z,3.67
2018-12-09T07:05:49.690Z,3.17
2018-12-09T07:07:53.899Z,5.43
2018-12-09T07:09:58.047Z,5.70
2018-12-09T07:12:02.167Z,2.03
2018-12-09T07:14:05.990Z,3.07
2018-12-09T07:16:10.021Z,4.53
2018-12-09T07:18:14.361Z,6.23
2018-12-09T07:20:18.396Z,6.33
2018-12-09T07:22:22.457Z,6.47
2018-12-09T07:24:26.505Z,6.70
2018-12-09T07:26:30.489Z,5.83
2018-12-09T07:28:34.532Z,4.83
2018-12-09T07:30:38.690Z,8.70
2018-12-09T07:32:42.886Z,6.73
2018-12-09T07:34:46.976Z,6.53
2018-12-09T07:36:51.237Z,10.63
2018-12-09T07:38:55.240Z,7.67
2018-12-09T07:40:59.300Z,7.87
2018-12-09T07:43:03.396Z,8.33
2018-12-09T07:45:08.613Z,8.43
2018-12-09T07:47:12.656Z,7.30
2018-12-09T07:49:16.821Z,11.07
2018-12-09T07:51:20.984Z,10.90
2018-12-09T07:53:25.593Z,13.70
2018-12-09T07:55:29.733Z,7.23
2018-12-09T07:57:33.755Z,9.97
2018-12-09T07:59:37.917Z,9.23
2018-12-09T08:01:42.228Z,10.70
2018-12-09T08:03:46.241Z,11.87
2018-12-09T08:05:50.286Z,11.70
2018-12-09T08:07:54.288Z,12.53
2018-12-09T08:09:58.319Z,7.60
2018-12-09T08:12:02.446Z,10.13
2018-12-09T08:14:08.006Z,7.70
2018-12-09T08:16:12.311Z,9.77
2018-12-09T08:18:16.339Z,7.33
2018-12-09T08:20:20.401Z,8.40
2018-12-09T08:22:24.555Z,9.10
2018-12-09T08:24:28.567Z,9.53
2018-12-09T08:26:32.623Z,9.47
2018-12-09T08:28:36.640Z,10.27
2018-12-09T08:30:40.677Z,10.73
2018-12-09T08:32:44.806Z,9.43
2018-12-09T08:34:48.837Z,8.57
2018-12-09T08:36:52.952Z,9.03
2018-12-09T08:38:56.999Z,8.70
2018-12-09T08:41:01.068Z,7.43
2018-12-09T08:43:05.225Z,9.87
2018-12-09T08:45:09.472Z,8.87
2018-12-09T08:47:13.593Z,6.57
2018-12-09T08:49:17.626Z,10.20
2018-12-09T08:51:21.644Z,7.93
2018-12-09T08:53:25.836Z,8.43
2018-12-09T08:55:29.893Z,7.20
2018-12-09T08:57:33.925Z,9.83
2018-12-09T08:59:37.953Z,7.97
2018-12-09T09:01:42.016Z,6.90
2018-12-09T09:03:46.054Z,8.60
2018-12-09T09:05:50.097Z,6.90
2018-12-09T09:07:54.205Z,6.30
2018-12-09T09:09:58.229Z,6.80
2018-12-09T09:12:02.340Z,6.73
2018-12-09T09:14:06.555Z,7.67
2018-12-09T09:16:10.838Z,7.70
2018-12-09T09:18:15.142Z,7.37
2018-12-09T09:20:19.258Z,13.90
2018-12-09T09:22:23.322Z,7.60
2018-12-09T09:24:27.754Z,11.43
2018-12-09T09:26:31.788Z,9.17
2018-12-09T09:28:35.798Z,6.67
2018-12-09T09:30:40.201Z,8.47
2018-12-09T09:32:44.351Z,8.73
2018-12-09T09:34:48.389Z,8.57
2018-12-09T09:36:52.533Z,9.53
2018-12-09T09:38:56.596Z,7.93
2018-12-09T09:41:00.628Z,9.00
2018-12-09T09:43:04.739Z,9.43
2018-12-09T09:45:09.257Z,8.67
2018-12-09T09:47:13.389Z,10.37
2018-12-09T09:49:17.908Z,7.47
2018-12-09T09:51:21.953Z,9.90
2018-12-09T09:53:25.983Z,7.30
2018-12-09T09:55:30.080Z,7.83
2018-12-09T09:57:34.200Z,6.13
2018-12-09T09:59:38.218Z,7.80
2018-12-09T10:01:42.309Z,8.80
2018-12-09T10:03:46.334Z,8.17
2018-12-09T10:05:50.451Z,6.80
2018-12-09T10:07:54.508Z,5.57
2018-12-09T10:09:58.501Z,7.07
2018-12-09T10:12:02.705Z,6.23
2018-12-09T10:14:06.771Z,9.50
2018-12-09T10:16:11.206Z,6.07
2018-12-09T10:18:15.213Z,7.70
2018-12-09T10:20:19.383Z,4.60
2018-12-09T10:22:23.442Z,6.70
2018-12-09T10:24:27.571Z,7.47
2018-12-09T10:26:36.359Z,7.60
2018-12-09T10:28:37.655Z,6.10
2018-12-09T10:30:41.712Z,6.40
2018-12-09T10:32:45.845Z,5.30
2018-12-09T10:34:49.901Z,5.00
2018-12-09T10:36:54.045Z,6.60
2018-12-09T10:38:58.077Z,5.80
2018-12-09T10:41:02.202Z,6.13
2018-12-09T10:43:06.416Z,4.37
2018-12-09T10:45:10.570Z,3.77
2018-12-09T10:47:14.611Z,5.87
2018-12-09T10:49:18.617Z,7.77
2018-12-09T10:51:22.631Z,3.33
2018-12-09T10:53:26.673Z,4.30
2018-12-09T10:55:30.705Z,2.60
2018-12-09T10:57:34.907Z,4.10
2018-12-09T10:59:38.900Z,5.67
2018-12-09T11:01:47.161Z,1.40
2018-12-09T11:03:52.801Z,3.50
2018-12-09T11:05:56.954Z,3.27
2018-12-09T11:08:01.068Z,3.67
2018-12-09T11:10:06.669Z,1.30
2018-12-09T11:12:10.829Z,0.97
2018-12-09T11:14:14.956Z,1.73
2018-12-09T11:16:19.118Z,0.50
2018-12-09T11:18:23.174Z,1.90
2018-12-09T11:20:27.303Z,0.77
2018-12-09T11:22:31.394Z,1.40
2018-12-09T11:24:35.551Z,0.37
2018-12-09T11:26:39.570Z,0.90
2018-12-09T11:28:43.737Z,0.73
2018-12-09T11:30:47.740Z,3.10
2018-12-09T11:32:51.870Z,0.70
2018-12-09T11:34:55.919Z,1.40
2018-12-09T11:37:00.241Z,0.10
2018-12-09T11:39:06.011Z,0.67
2018-12-09T11:41:10.047Z,0.30
2018-12-09T11:43:14.192Z,0.20
2018-12-09T11:45:18.253Z,0.67
2018-12-09T11:47:22.374Z,0.37
2018-12-09T11:49:26.415Z,0.87
2018-12-09T11:51:30.643Z,2.83
2018-12-09T11:53:36.615Z,1.70
2018-12-09T11:55:40.932Z,1.53
2018-12-09T11:57:45.084Z,0.10
2018-12-09T11:59:51.844Z,1.23
2018-12-09T12:01:56.066Z,0.83
2018-12-09T12:04:00.312Z,0.30
2018-12-09T12:06:04.575Z,1.00
2018-12-09T12:08:08.806Z,0.00
2018-12-09T12:10:13.312Z,0.83
2018-12-09T12:12:17.758Z,1.53
2018-12-09T12:14:21.876Z,0.10
2018-12-09T12:16:25.924Z,0.50
2018-12-09T12:18:30.498Z,0.20
2018-12-09T12:20:34.585Z,0.83
2018-12-09T12:22:38.811Z,0.53
2018-12-09T12:24:42.881Z,0.30
2018-12-09T12:26:47.009Z,3.13
2018-12-09T12:28:51.388Z,0.40
2018-12-09T12:30:55.570Z,0.40
2018-12-09T12:32:59.729Z,0.23
2018-12-09T12:35:04.181Z,0.30
2018-12-09T12:37:08.328Z,0.83
2018-12-09T12:39:12.395Z,0.60
2018-12-09T12:41:17.724Z,0.67
2018-12-09T12:43:21.929Z,1.37
2018-12-09T12:45:26.165Z,1.10
2018-12-09T12:47:30.498Z,0.33
2018-12-09T12:49:35.394Z,0.27
2018-12-09T12:51:39.751Z,0.57
2018-12-09T12:53:44.037Z,0.27
2018-12-09T12:55:48.092Z,0.17
2018-12-09T12:57:52.300Z,1.00
2018-12-09T12:59:56.336Z,1.87
2018-12-09T13:02:00.406Z,0.90
2018-12-09T13:04:04.693Z,0.53
2018-12-09T13:06:09.241Z,1.10
2018-12-09T13:08:14.204Z,2.10
2018-12-09T13:10:18.216Z,1.30
2018-12-09T13:12:22.314Z,2.80
2018-12-09T13:14:26.854Z,2.10
2018-12-09T13:16:30.943Z,1.63
2018-12-09T13:18:35.037Z,3.67
2018-12-09T13:20:39.161Z,4.03
2018-12-09T13:22:43.332Z,2.07
2018-12-09T13:24:47.421Z,2.03
2018-12-09T13:26:51.542Z,2.77
2018-12-09T13:28:56.022Z,2.17
2018-12-09T13:31:00.392Z,2.10
2018-12-09T13:33:04.662Z,2.40
2018-12-09T13:35:08.829Z,1.50
2018-12-09T13:37:12.925Z,3.50
2018-12-09T13:39:17.158Z,1.73
2018-12-09T13:41:21.235Z,2.67
2018-12-09T13:43:25.469Z,2.60
2018-12-09T13:45:29.554Z,3.03
2018-12-09T13:47:33.660Z,4.27
2018-12-09T13:49:37.843Z,1.97
2018-12-09T13:51:41.962Z,2.87
2018-12-09T13:53:46.769Z,1.80
2018-12-09T13:55:50.805Z,2.37
2018-12-09T13:57:54.931Z,1.70
2018-12-09T13:59:58.978Z,1.70
2018-12-09T14:02:03.050Z,1.93
2018-12-09T14:04:07.302Z,1.60
2018-12-09T14:06:11.783Z,1.83
2018-12-09T14:08:15.917Z,2.37
2018-12-09T14:10:20.086Z,2.60
2018-12-09T14:12:24.137Z,2.60
2018-12-09T14:14:28.184Z,5.03
2018-12-09T14:16:32.254Z,1.83
2018-12-09T14:18:38.354Z,6.93
2018-12-09T14:20:42.513Z,2.70
2018-12-09T14:22:46.748Z,2.93
2018-12-09T14:24:50.862Z,4.23
2018-12-09T14:26:55.036Z,3.50
2018-12-09T14:28:59.653Z,3.00
2018-12-09T14:31:03.731Z,2.67
2018-12-09T14:33:07.840Z,4.27
2018-12-09T14:35:12.093Z,3.17
2018-12-09T14:37:16.109Z,5.13
2018-12-09T14:39:20.216Z,4.10
2018-12-09T14:41:24.226Z,3.43
2018-12-09T14:43:28.270Z,3.47
2018-12-09T14:45:32.413Z,3.57
2018-12-09T14:47:36.694Z,4.47
2018-12-09T14:49:40.849Z,8.80
2018-12-09T14:51:44.866Z,5.37
2018-12-09T14:53:48.919Z,4.77
2018-12-09T14:55:52.957Z,4.53
2018-12-09T14:57:57.048Z,3.60
2018-12-09T15:00:01.168Z,6.07
2018-12-09T15:02:05.449Z,5.33
2018-12-09T15:04:09.598Z,3.30
2018-12-09T15:06:13.668Z,7.53
2018-12-09T15:08:17.701Z,7.77
2018-12-09T15:10:21.719Z,5.83
2018-12-09T15:12:26.268Z,15.93
2018-12-09T15:14:30.592Z,9.93
2018-12-09T15:16:34.636Z,40.93
2018-12-09T15:18:38.957Z,18.87
2018-12-09T15:20:43.066Z,9.47
2018-12-09T15:22:47.165Z,8.87
2018-12-09T15:24:51.473Z,5.43
2018-12-09T15:26:55.522Z,4.77
2018-12-09T15:29:00.974Z,4.50
2018-12-09T15:31:05.170Z,1.83
2018-12-09T15:33:09.287Z,2.93
2018-12-09T15:35:13.356Z,3.53
2018-12-09T15:37:18.502Z,3.10
2018-12-09T15:39:22.545Z,4.10
2018-12-09T15:41:26.920Z,1.80
2018-12-09T15:43:30.983Z,3.20
2018-12-09T15:45:35.115Z,2.03
2018-12-09T15:47:40.191Z,1.50
2018-12-09T15:49:45.232Z,3.33
2018-12-09T15:51:49.299Z,5.37
2018-12-09T15:53:53.618Z,7.53
2018-12-09T15:55:59.402Z,4.10
2018-12-09T15:58:03.796Z,3.03
2018-12-09T16:00:09.407Z,1.67
2018-12-09T16:02:13.577Z,3.97
2018-12-09T16:04:17.693Z,6.27
2018-12-09T16:06:21.845Z,4.83
2018-12-09T16:08:25.854Z,4.97
2018-12-09T16:10:30.553Z,5.03
2018-12-09T16:12:34.593Z,4.27
2018-12-09T16:14:38.906Z,3.30
2018-12-09T16:16:43.033Z,3.67
2018-12-09T16:18:47.080Z,2.80
2018-12-09T16:20:51.114Z,3.47
2018-12-09T16:22:55.230Z,5.07
2018-12-09T16:24:59.454Z,4.30
2018-12-09T16:27:03.658Z,5.60
2018-12-09T16:29:08.412Z,3.33
2018-12-09T16:31:12.537Z,4.70
2018-12-09T16:33:17.484Z,4.63
2018-12-09T16:35:21.585Z,5.97
2018-12-09T16:37:25.908Z,4.50
2018-12-09T16:39:29.907Z,7.40
2018-12-09T16:41:35.974Z,9.10
2018-12-09T16:43:40.001Z,5.00
2018-12-09T16:45:44.065Z,6.37
2018-12-09T16:47:48.134Z,5.30
2018-12-09T16:49:52.848Z,3.40
2018-12-09T16:51:57.980Z,8.67
2018-12-09T16:54:02.092Z,4.00
2018-12-09T16:56:06.173Z,4.77
2018-12-09T16:58:10.198Z,5.70
2018-12-09T17:00:14.494Z,7.97
2018-12-09T17:02:19.018Z,6.37
2018-12-09T17:04:23.434Z,6.23
2018-12-09T17:06:27.828Z,4.23
2018-12-09T17:08:31.850Z,4.60
2018-12-09T17:10:35.969Z,5.53
2018-12-09T17:12:40.154Z,6.23
2018-12-09T17:14:44.317Z,3.90
2018-12-09T17:16:48.386Z,6.63
2018-12-09T17:18:52.735Z,6.03
2018-12-09T17:20:56.850Z,6.17
2018-12-09T17:23:00.948Z,11.53
2018-12-09T17:25:05.240Z,6.97
2018-12-09T17:27:09.275Z,8.20
2018-12-09T17:29:13.363Z,9.67
2018-12-09T17:31:17.474Z,6.63
2018-12-09T17:33:23.585Z,8.57
2018-12-09T17:35:27.865Z,4.90
2018-12-09T17:37:31.898Z,6.03
2018-12-09T17:39:35.939Z,9.83
2018-12-09T17:41:39.943Z,5.83
2018-12-09T17:43:43.954Z,7.97
2018-12-09T17:45:47.992Z,4.70
2018-12-09T17:47:52.005Z,10.30
2018-12-09T17:49:56.077Z,6.80
2018-12-09T17:52:00.258Z,8.40
2018-12-09T17:54:04.466Z,5.63
2018-12-09T17:56:08.575Z,9.53
2018-12-09T17:58:12.613Z,10.63
2018-12-09T18:00:16.829Z,9.03
2018-12-09T18:02:21.030Z,8.83
2018-12-09T18:04:25.237Z,14.00
2018-12-09T18:06:29.437Z,13.87
2018-12-09T18:08:33.442Z,9.57
2018-12-09T18:10:37.469Z,10.13
2018-12-09T18:12:47.923Z,7.77
2018-12-09T18:14:47.570Z,7.10
2018-12-09T18:16:51.610Z,10.70
2018-12-09T18:18:56.557Z,6.83
2018-12-09T18:21:01.759Z,10.60
2018-12-09T18:23:05.973Z,9.83
2018-12-09T18:25:10.147Z,14.93
2018-12-09T18:27:14.293Z,11.97
2018-12-09T18:29:18.376Z,7.63
2018-12-09T18:31:22.669Z,4.87
2018-12-09T18:33:26.804Z,5.03
2018-12-09T18:35:31.081Z,6.67
2018-12-09T18:37:35.792Z,8.33
2018-12-09T18:39:40.869Z,10.07
2018-12-09T18:41:45.884Z,8.53
2018-12-09T18:43:50.152Z,10.77
2018-12-09T18:45:54.368Z,9.57
2018-12-09T18:47:58.426Z,8.53
2018-12-09T18:50:02.645Z,11.33
2018-12-09T18:52:06.657Z,10.13
2018-12-09T18:54:11.628Z,8.13
2018-12-09T18:56:15.659Z,9.27
2018-12-09T18:58:19.715Z,10.97
2018-12-09T19:00:23.836Z,9.80
2018-12-09T19:02:28.013Z,9.43
2018-12-09T19:04:32.122Z,12.27
2018-12-09T19:06:36.425Z,8.07
2018-12-09T19:08:40.638Z,7.73
2018-12-09T19:10:44.797Z,8.33
2018-12-09T19:12:48.945Z,10.37
2018-12-09T19:14:53.079Z,8.87
2018-12-09T19:16:57.145Z,8.93
2018-12-09T19:19:01.166Z,7.23
2018-12-09T19:21:05.333Z,6.90
2018-12-09T19:23:09.395Z,7.63
2018-12-09T19:25:14.118Z,4.90
2018-12-09T19:27:18.290Z,10.50
2018-12-09T19:29:22.364Z,8.80
2018-12-09T19:31:26.491Z,11.67
2018-12-09T19:33:30.698Z,7.10
2018-12-09T19:35:34.816Z,10.40
2018-12-09T19:37:38.850Z,10.37
2018-12-09T19:39:43.103Z,9.17
2018-12-09T19:41:47.117Z,9.10
2018-12-09T19:43:51.277Z,9.40
2018-12-09T19:45:56.142Z,7.87
2018-12-09T19:48:00.217Z,9.67
2018-12-09T19:50:04.585Z,9.70
2018-12-09T19:52:08.714Z,9.77
2018-12-09T19:54:13.221Z,11.40
2018-12-09T19:56:17.404Z,8.73
2018-12-09T19:58:21.499Z,9.27
2018-12-09T20:00:25.537Z,8.73
2018-12-09T20:02:29.562Z,10.60
2018-12-09T20:04:33.543Z,10.53
2018-12-09T20:06:37.559Z,17.30
2018-12-09T20:08:41.670Z,11.40
2018-12-09T20:10:45.663Z,6.67
2018-12-09T20:12:49.701Z,7.47
2018-12-09T20:14:53.779Z,10.97
2018-12-09T20:16:58.609Z,10.17
2018-12-09T20:19:02.932Z,9.70
2018-12-09T20:21:06.979Z,8.37
2018-12-09T20:23:11.236Z,10.80
2018-12-09T20:25:15.322Z,9.53
2018-12-09T20:27:19.338Z,11.97
2018-12-09T20:29:23.429Z,8.83
2018-12-09T20:31:27.600Z,7.73
2018-12-09T20:33:31.828Z,6.53
2018-12-09T20:35:35.822Z,9.77
2018-12-09T20:37:39.908Z,6.67
2018-12-09T20:39:44.029Z,7.23
2018-12-09T20:41:48.829Z,6.90
2018-12-09T20:43:52.893Z,5.93
2018-12-09T20:45:56.927Z,8.87
2018-12-09T20:48:00.929Z,7.80
2018-12-09T20:50:06.064Z,9.53
2018-12-09T20:52:10.114Z,8.23
2018-12-09T20:54:14.208Z,9.97
2018-12-09T20:56:18.250Z,10.30
2018-12-09T20:58:22.304Z,6.13
2018-12-09T21:00:26.456Z,12.70
2018-12-09T21:02:30.473Z,11.00
2018-12-09T21:04:34.567Z,11.30
2018-12-09T21:06:38.935Z,21.40
2018-12-09T21:08:43.190Z,16.83
2018-12-09T21:10:47.202Z,14.00
2018-12-09T21:12:51.336Z,11.80
2018-12-09T21:14:55.448Z,16.43
2018-12-09T21:16:59.482Z,10.63
2018-12-09T21:19:03.632Z,15.97
2018-12-09T21:21:08.345Z,6.43
2018-12-09T21:23:12.601Z,7.73
2018-12-09T21:25:16.726Z,10.80
2018-12-09T21:27:20.781Z,8.53
2018-12-09T21:29:24.790Z,12.37
2018-12-09T21:31:28.819Z,16.63
2018-12-09T21:33:36.809Z,22.27
2018-12-09T21:35:40.808Z,13.73
2018-12-09T21:37:44.807Z,14.27
2018-12-09T21:39:48.824Z,11.27
2018-12-09T21:41:52.981Z,15.03
2018-12-09T21:43:56.965Z,15.27
2018-12-09T21:46:00.998Z,13.27
2018-12-09T21:48:05.005Z,11.60
2018-12-09T21:50:09.260Z,8.73
2018-12-09T21:52:13.337Z,8.80
2018-12-09T21:54:17.490Z,10.67
2018-12-09T21:56:21.549Z,6.97
2018-12-09T21:58:25.552Z,8.70
2018-12-09T22:00:29.618Z,6.67
2018-12-09T22:02:33.722Z,9.03
2018-12-09T22:04:37.725Z,13.57
2018-12-09T22:06:41.824Z,9.17
2018-12-09T22:08:45.832Z,8.30
2018-12-09T22:10:50.077Z,8.13
2018-12-09T22:12:54.535Z,7.50
2018-12-09T22:14:58.657Z,8.60
2018-12-09T22:17:02.692Z,10.10
2018-12-09T22:19:06.825Z,10.03
2018-12-09T22:21:11.263Z,9.03
2018-12-09T22:23:15.315Z,14.53
2018-12-09T22:25:19.371Z,6.73
2018-12-09T22:27:23.452Z,8.07
2018-12-09T22:29:27.550Z,12.17
2018-12-09T22:31:31.582Z,5.80
2018-12-09T22:33:35.621Z,7.43
2018-12-09T22:35:39.741Z,8.87
2018-12-09T22:37:43.849Z,9.93
2018-12-09T22:39:47.945Z,7.13
2018-12-09T22:41:52.249Z,9.13
2018-12-09T22:43:56.518Z,10.47
2018-12-09T22:46:00.560Z,9.80
2018-12-09T22:48:04.745Z,7.33
2018-12-09T22:50:09.941Z,10.93
2018-12-09T22:52:14.019Z,6.80
2018-12-09T22:54:18.099Z,7.27
2018-12-09T22:56:22.107Z,8.17
2018-12-09T22:58:26.125Z,6.63
2018-12-09T23:00:30.493Z,7.77
2018-12-09T23:02:39.721Z,7.47
2018-12-09T23:04:43.749Z,8.77
2018-12-09T23:06:47.749Z,8.23
2018-12-09T23:08:51.881Z,9.93
2018-12-09T23:10:55.968Z,11.17
2018-12-09T23:12:59.980Z,8.37
2018-12-09T23:15:04.122Z,8.60
2018-12-09T23:17:08.337Z,12.70
2018-12-09T23:19:12.534Z,9.10
2018-12-09T23:21:16.540Z,11.83
2018-12-09T23:23:20.540Z,13.20
2018-12-09T23:25:24.565Z,12.43
2018-12-09T23:27:28.622Z,5.57
2018-12-09T23:29:32.628Z,10.50
2018-12-09T23:31:36.720Z,11.23
2018-12-09T23:33:40.721Z,7.87
2018-12-09T23:35:44.957Z,8.20
2018-12-09T23:37:48.981Z,12.77
2018-12-09T23:39:52.964Z,9.03
2018-12-09T23:41:57.061Z,6.03
2018-12-09T23:44:01.061Z,9.60
2018-12-09T23:46:05.233Z,7.00
2018-12-09T23:48:09.249Z,11.60
2018-12-09T23:50:13.434Z,9.70
2018-12-09T23:52:17.550Z,8.13
2018-12-09T23:54:21.540Z,5.73
2018-12-09T23:56:26.402Z,7.47
2018-12-09T23:58:30.409Z,9.67
